Kitty C — 2EIQ6 — position and weather

sailwx.info

Track history (hours):
 
Tides and Currents Weather Stations Pressure Air Temp Water Temp Dewpoint Dewpoint Depression Visibility Wind Speed Wind Dir Waves Ship Positions

Kitty C

Last reported at 2014-Nov-27 06:30 UTC. Time now 2014-Nov-29 06:18 UTC.
Position N 55°02' E 018°26'.

Length 106 m; draft 4.6 m.

Type: Cargo ship. MMSI: 235085464.

Date/timePositionNaut miles runAvg speedWind from/ knotsBaromVisibWave heightAir tempDewpointWater temp
2014-Nov-27 06:30N 55°02' E 018°26'1011.0
2014-Nov-27 05:33N 54°58' E 018°10'1110.8
2014-Nov-27 04:33N 54°57' E 017°51'13910.5
2014-Nov-26 15:16N 53°55' E 014°16'10 8.4
2014-Nov-26 14:06N 53°46' E 014°24'611.0
2014-Nov-26 13:33N 53°41' E 014°30'1010.1
2014-Nov-26 12:34N 53°32' E 014°38'7 6.5
2014-Nov-26 11:33N 53°26' E 014°35'0 0.1
2014-Nov-26 10:32N 53°26' E 014°35'0 0.0
2014-Nov-26 09:32N 53°26' E 014°35'0 0.0
2014-Nov-26 08:32N 53°26' E 014°35'0 0.0
2014-Nov-26 07:32N 53°26' E 014°35'0 0.0
2014-Nov-26 06:32N 53°26' E 014°35'0 0.0
2014-Nov-26 05:29N 53°26' E 014°35'0 0.0
2014-Nov-26 04:32N 53°26' E 014°35'0 0.0
2014-Nov-26 03:32N 53°26' E 014°35'0 0.0
2014-Nov-26 02:32N 53°26' E 014°35'0 0.0
2014-Nov-26 01:32N 53°26' E 014°35'0 0.0
2014-Nov-26 00:32N 53°26' E 014°35'0 0.0
2014-Nov-25 23:32N 53°26' E 014°35'0 0.0
2014-Nov-25 22:32N 53°26' E 014°35'0 0.0
2014-Nov-25 21:32N 53°26' E 014°35'0 0.0
2014-Nov-25 20:32N 53°26' E 014°35'0 0.0
2014-Nov-25 19:32N 53°26' E 014°35'0 0.0
2014-Nov-25 18:32N 53°26' E 014°35'0 0.0
2014-Nov-25 17:32N 53°26' E 014°35'0 0.0
2014-Nov-25 16:32N 53°26' E 014°35'0 0.0
2014-Nov-25 15:32N 53°26' E 014°35'0 0.0
2014-Nov-25 14:32N 53°26' E 014°35'0 0.0
2014-Nov-25 13:32N 53°26' E 014°35'0 0.0
2014-Nov-25 12:32N 53°26' E 014°35'0 0.0
2014-Nov-25 11:32N 53°26' E 014°35'0 0.0
2014-Nov-25 10:32N 53°26' E 014°35'0 0.0
2014-Nov-25 09:32N 53°26' E 014°35'0 0.0
2014-Nov-25 08:34N 53°26' E 014°35'0 0.0
2014-Nov-25 07:33N 53°26' E 014°35'0 0.0
2014-Nov-25 06:33N 53°26' E 014°35'0 0.0
2014-Nov-25 05:33N 53°26' E 014°35'5 5.4
2014-Nov-25 04:34N 53°31' E 014°38'9 9.0
2014-Nov-25 03:33N 53°40' E 014°32'10 9.7
2014-Nov-25 02:33N 53°47' E 014°22'8 7.9
2014-Nov-25 01:33N 53°54' E 014°15'8 7.8
2014-Nov-25 00:33N 54°02' E 014°14'8 8.4
2014-Nov-24 23:33N 54°10' E 014°12'72 7.8
2014-Nov-24 14:20N 54°25' E 012°12'7 9.6
2014-Nov-24 13:33N 54°24' E 011°59'59 9.7
2014-Nov-24 07:30N 54°29' E 010°19'9 9.0
2014-Nov-24 06:33N 54°22' E 010°11'3 3.5
2014-Nov-24 05:33N 54°22' E 010°05'8 7.5
2014-Nov-24 04:33N 54°22' E 009°52'8 7.7
2014-Nov-24 03:33N 54°18' E 009°41'6 6.2
2014-Nov-24 02:33N 54°12' E 009°34'10 7.6
2014-Nov-24 01:15N 54°08' E 009°20'5 7.7
2014-Nov-24 00:33N 54°02' E 009°18'5 5.2
2014-Nov-23 23:34N 53°58' E 009°15'4 3.6
2014-Nov-23 22:34N 53°55' E 009°11'0 0.0
2014-Nov-23 21:34N 53°55' E 009°11'0 0.2
2014-Nov-23 20:34N 53°55' E 009°11'1 1.4
2014-Nov-23 19:33N 53°54' E 009°09'1 1.3
2014-Nov-23 18:34N 53°53' E 009°07'0 0.5
2014-Nov-23 17:34N 53°53' E 009°06'5 5.2
2014-Nov-23 16:34N 53°51' E 008°58'8 7.5
2014-Nov-23 15:33N 53°51' E 008°45'8 8.0
2014-Nov-23 14:33N 53°57' E 008°37'8 8.4
2014-Nov-23 13:33N 53°59' E 008°23'9 8.9
2014-Nov-23 12:34N 53°59' E 008°08'1010.1
2014-Nov-23 11:33N 53°57' E 007°51'6911.2
2014-Nov-23 05:25N 53°40' E 005°58'911.1
2014-Nov-23 04:34N 53°37' E 005°43'1010.5
2014-Nov-23 03:34N 53°34' E 005°26'10 9.7
2014-Nov-23 02:33N 53°31' E 005°10'9 9.4
2014-Nov-23 01:33N 53°27' E 004°56'9 9.2
2014-Nov-23 00:34N 53°23' E 004°42'22 9.6
2014-Nov-22 22:17N 53°03' E 004°25'26 9.4
2014-Nov-22 19:32N 52°42' E 004°01'9111.4
2014-Nov-22 11:33N 51°34' E 002°22'1211.6
2014-Nov-22 10:33N 51°24' E 002°12'1111.3
2014-Nov-22 09:33N 51°14' E 002°03'1010.3
2014-Nov-22 08:34N 51°08' E 001°50'9 8.7
2014-Nov-22 07:33N 51°02' E 001°40'8 7.9
2014-Nov-22 06:33N 50°56' E 001°31'278 9.6
2014-Nov-21 01:33N 49°00' W 005°00'2110.4
2014-Nov-20 23:33N 48°50' W 005°28'19 9.5
2014-Nov-20 21:33N 48°34' W 005°45'9 8.8
2014-Nov-20 20:33N 48°27' W 005°51'17 8.5
2014-Nov-20 18:33N 48°11' W 006°03'9 8.7
2014-Nov-20 17:33N 48°04' W 006°09'9 8.5
2014-Nov-20 16:33N 47°56' W 006°15'  
Track history (hours):
 
Tides and Currents Weather Stations Pressure Air Temp Water Temp Dewpoint Dewpoint Depression Visibility Wind Speed Wind Dir Waves Ship Positions

Kitty C

Last reported at 2014-Nov-27 06:30 UTC. Time now 2014-Nov-29 06:18 UTC.
Position N 55°02' E 018°26'.

Length 106 m; draft 4.6 m.

Type: Cargo ship. MMSI: 235085464.

Date/timePositionNaut miles runAvg speedWind from/ knotsBaromVisibWave heightAir tempDewpointWater temp
2014-Nov-27 06:30N 55°02' E 018°26'1011.0
2014-Nov-27 05:33N 54°58' E 018°10'1110.8
2014-Nov-27 04:33N 54°57' E 017°51'13910.5
2014-Nov-26 15:16N 53°55' E 014°16'10 8.4
2014-Nov-26 14:06N 53°46' E 014°24'611.0
2014-Nov-26 13:33N 53°41' E 014°30'1010.1
2014-Nov-26 12:34N 53°32' E 014°38'7 6.5
2014-Nov-26 11:33N 53°26' E 014°35'0 0.1
2014-Nov-26 10:32N 53°26' E 014°35'0 0.0
2014-Nov-26 09:32N 53°26' E 014°35'0 0.0
2014-Nov-26 08:32N 53°26' E 014°35'0 0.0
2014-Nov-26 07:32N 53°26' E 014°35'0 0.0
2014-Nov-26 06:32N 53°26' E 014°35'0 0.0
2014-Nov-26 05:29N 53°26' E 014°35'0 0.0
2014-Nov-26 04:32N 53°26' E 014°35'0 0.0
2014-Nov-26 03:32N 53°26' E 014°35'0 0.0
2014-Nov-26 02:32N 53°26' E 014°35'0 0.0
2014-Nov-26 01:32N 53°26' E 014°35'0 0.0
2014-Nov-26 00:32N 53°26' E 014°35'0 0.0
2014-Nov-25 23:32N 53°26' E 014°35'0 0.0
2014-Nov-25 22:32N 53°26' E 014°35'0 0.0
2014-Nov-25 21:32N 53°26' E 014°35'0 0.0
2014-Nov-25 20:32N 53°26' E 014°35'0 0.0
2014-Nov-25 19:32N 53°26' E 014°35'0 0.0
2014-Nov-25 18:32N 53°26' E 014°35'0 0.0
2014-Nov-25 17:32N 53°26' E 014°35'0 0.0
2014-Nov-25 16:32N 53°26' E 014°35'0 0.0
2014-Nov-25 15:32N 53°26' E 014°35'0 0.0
2014-Nov-25 14:32N 53°26' E 014°35'0 0.0
2014-Nov-25 13:32N 53°26' E 014°35'0 0.0
2014-Nov-25 12:32N 53°26' E 014°35'0 0.0
2014-Nov-25 11:32N 53°26' E 014°35'0 0.0
2014-Nov-25 10:32N 53°26' E 014°35'0 0.0
2014-Nov-25 09:32N 53°26' E 014°35'0 0.0
2014-Nov-25 08:34N 53°26' E 014°35'0 0.0
2014-Nov-25 07:33N 53°26' E 014°35'0 0.0
2014-Nov-25 06:33N 53°26' E 014°35'0 0.0
2014-Nov-25 05:33N 53°26' E 014°35'5 5.4
2014-Nov-25 04:34N 53°31' E 014°38'9 9.0
2014-Nov-25 03:33N 53°40' E 014°32'10 9.7
2014-Nov-25 02:33N 53°47' E 014°22'8 7.9
2014-Nov-25 01:33N 53°54' E 014°15'8 7.8
2014-Nov-25 00:33N 54°02' E 014°14'8 8.4
2014-Nov-24 23:33N 54°10' E 014°12'72 7.8
2014-Nov-24 14:20N 54°25' E 012°12'7 9.6
2014-Nov-24 13:33N 54°24' E 011°59'59 9.7
2014-Nov-24 07:30N 54°29' E 010°19'9 9.0
2014-Nov-24 06:33N 54°22' E 010°11'3 3.5
2014-Nov-24 05:33N 54°22' E 010°05'8 7.5
2014-Nov-24 04:33N 54°22' E 009°52'8 7.7
2014-Nov-24 03:33N 54°18' E 009°41'6 6.2
2014-Nov-24 02:33N 54°12' E 009°34'10 7.6
2014-Nov-24 01:15N 54°08' E 009°20'5 7.7
2014-Nov-24 00:33N 54°02' E 009°18'5 5.2
2014-Nov-23 23:34N 53°58' E 009°15'4 3.6
2014-Nov-23 22:34N 53°55' E 009°11'0 0.0
2014-Nov-23 21:34N 53°55' E 009°11'0 0.2
2014-Nov-23 20:34N 53°55' E 009°11'1 1.4
2014-Nov-23 19:33N 53°54' E 009°09'1 1.3
2014-Nov-23 18:34N 53°53' E 009°07'0 0.5
2014-Nov-23 17:34N 53°53' E 009°06'5 5.2
2014-Nov-23 16:34N 53°51' E 008°58'8 7.5
2014-Nov-23 15:33N 53°51' E 008°45'8 8.0
2014-Nov-23 14:33N 53°57' E 008°37'8 8.4
2014-Nov-23 13:33N 53°59' E 008°23'9 8.9
2014-Nov-23 12:34N 53°59' E 008°08'1010.1
2014-Nov-23 11:33N 53°57' E 007°51'6911.2
2014-Nov-23 05:25N 53°40' E 005°58'911.1
2014-Nov-23 04:34N 53°37' E 005°43'1010.5
2014-Nov-23 03:34N 53°34' E 005°26'10 9.7
2014-Nov-23 02:33N 53°31' E 005°10'9 9.4
2014-Nov-23 01:33N 53°27' E 004°56'9 9.2
2014-Nov-23 00:34N 53°23' E 004°42'22 9.6
2014-Nov-22 22:17N 53°03' E 004°25'26 9.4
2014-Nov-22 19:32N 52°42' E 004°01'9111.4
2014-Nov-22 11:33N 51°34' E 002°22'1211.6
2014-Nov-22 10:33N 51°24' E 002°12'1111.3
2014-Nov-22 09:33N 51°14' E 002°03'1010.3
2014-Nov-22 08:34N 51°08' E 001°50'9 8.7
2014-Nov-22 07:33N 51°02' E 001°40'8 7.9
2014-Nov-22 06:33N 50°56' E 001°31'278 9.6
2014-Nov-21 01:33N 49°00' W 005°00'2110.4
2014-Nov-20 23:33N 48°50' W 005°28'19 9.5
2014-Nov-20 21:33N 48°34' W 005°45'9 8.8
2014-Nov-20 20:33N 48°27' W 005°51'17 8.5
2014-Nov-20 18:33N 48°11' W 006°03'9 8.7
2014-Nov-20 17:33N 48°04' W 006°09'9 8.5
2014-Nov-20 16:33N 47°56' W 006°15'  

Dump ship's entire track history